createdAt,value
2023-03-27T00:00:10.660Z,0.22
2023-03-27T00:02:37.813Z,0.85
2023-03-27T00:05:05.214Z,0.30
2023-03-27T00:07:31.812Z,0.50
2023-03-27T00:09:58.188Z,0.40
2023-03-27T00:12:24.588Z,0.20
2023-03-27T00:14:50.960Z,0.40
2023-03-27T00:17:17.332Z,0.30
2023-03-27T00:19:43.839Z,0.30
2023-03-27T00:22:10.712Z,0.10
2023-03-27T00:24:37.323Z,0.30
2023-03-27T00:27:03.712Z,1.38
2023-03-27T00:29:30.199Z,0.28
2023-03-27T00:31:56.728Z,0.45
2023-03-27T00:34:23.161Z,0.25
2023-03-27T00:36:51.212Z,0.17
2023-03-27T00:39:19.189Z,0.20
2023-03-27T00:41:45.718Z,0.20
2023-03-27T00:44:25.495Z,0.47
2023-03-27T00:46:54.597Z,0.17
2023-03-27T00:49:22.296Z,0.20
2023-03-27T00:51:48.895Z,0.10
2023-03-27T00:54:17.600Z,0.10
2023-03-27T00:56:45.158Z,0.10
2023-03-27T00:59:16.129Z,0.38
2023-03-27T01:01:43.966Z,0.20
2023-03-27T01:04:10.841Z,0.25
2023-03-27T01:06:38.731Z,0.10
2023-03-27T01:09:05.664Z,0.10
2023-03-27T01:11:38.969Z,0.10
2023-03-27T01:14:24.254Z,0.10
2023-03-27T01:16:59.395Z,0.10
2023-03-27T01:19:41.834Z,0.10
2023-03-27T01:22:27.819Z,0.10
2023-03-27T01:25:13.164Z,0.10
2023-03-27T01:27:39.974Z,0.10
2023-03-27T01:30:16.615Z,0.10
2023-03-27T01:32:49.737Z,1.00
2023-03-27T01:35:25.493Z,0.00
2023-03-27T01:37:51.937Z,0.17
2023-03-27T01:40:33.019Z,0.20
2023-03-27T01:43:07.060Z,0.03
2023-03-27T01:45:42.650Z,0.10
2023-03-27T01:48:09.058Z,0.00
2023-03-27T01:50:40.342Z,0.15
2023-03-27T01:53:22.902Z,0.00
2023-03-27T01:56:13.475Z,0.10
2023-03-27T01:58:41.997Z,0.08
2023-03-27T02:01:09.654Z,0.15
2023-03-27T02:03:41.953Z,0.20
2023-03-27T02:06:14.346Z,0.20
2023-03-27T02:08:53.275Z,0.20
2023-03-27T02:11:21.179Z,0.55
2023-03-27T02:13:50.275Z,0.30
2023-03-27T02:16:19.256Z,0.35
2023-03-27T02:18:49.707Z,0.50
2023-03-27T02:21:16.207Z,0.50
2023-03-27T02:23:43.700Z,0.50
2023-03-27T02:26:12.990Z,1.10
2023-03-27T02:29:02.150Z,0.80
2023-03-27T02:31:38.470Z,0.52
2023-03-27T02:34:05.541Z,2.08
2023-03-27T02:36:35.985Z,0.80
2023-03-27T02:39:11.470Z,1.50
2023-03-27T02:41:46.811Z,1.58
2023-03-27T02:44:51.705Z,1.98
2023-03-27T02:47:36.329Z,2.03
2023-03-27T02:50:05.544Z,2.40
2023-03-27T02:52:38.619Z,2.15
2023-03-27T02:55:07.437Z,2.05
2023-03-27T02:57:40.162Z,2.20
2023-03-27T03:00:26.104Z,2.20
2023-03-27T03:03:28.628Z,2.20
2023-03-27T03:06:07.159Z,2.20
2023-03-27T03:08:38.247Z,1.80
2023-03-27T03:11:08.828Z,1.38
2023-03-27T03:13:35.404Z,1.60
2023-03-27T03:16:01.829Z,1.50
2023-03-27T03:18:28.293Z,1.52
2023-03-27T03:20:58.130Z,1.80
2023-03-27T03:23:24.711Z,2.38
2023-03-27T03:25:52.667Z,2.63
2023-03-27T03:28:19.729Z,3.30
2023-03-27T03:30:50.493Z,2.78
2023-03-27T03:35:46.844Z,2.50
2023-03-27T03:38:27.007Z,1.67
2023-03-27T03:40:55.648Z,2.28
2023-03-27T03:43:23.103Z,2.65
2023-03-27T03:45:50.062Z,2.47
2023-03-27T03:48:17.208Z,2.38
2023-03-27T03:50:44.540Z,2.72
2023-03-27T03:53:11.463Z,3.42
2023-03-27T03:55:37.955Z,2.60
2023-03-27T03:58:04.676Z,1.90
2023-03-27T04:00:37.968Z,3.20
2023-03-27T04:03:08.636Z,3.47
2023-03-27T04:05:36.197Z,2.85
2023-03-27T04:08:02.997Z,2.60
2023-03-27T04:10:52.285Z,2.42
2023-03-27T04:13:34.989Z,2.50
2023-03-27T04:16:12.066Z,2.25
2023-03-27T04:21:17.630Z,2.08
2023-03-27T04:23:45.251Z,1.67
2023-03-27T04:26:15.837Z,2.20
2023-03-27T04:29:02.426Z,2.45
2023-03-27T04:31:48.913Z,1.85
2023-03-27T04:34:41.804Z,1.83
2023-03-27T04:37:27.721Z,2.25
2023-03-27T04:40:10.936Z,1.77
2023-03-27T04:42:42.358Z,2.45
2023-03-27T04:45:10.672Z,1.67
2023-03-27T04:47:37.932Z,2.22
2023-03-27T04:50:06.351Z,2.45
2023-03-27T04:52:34.160Z,0.93
2023-03-27T04:55:01.554Z,1.20
2023-03-27T04:57:30.814Z,0.98
2023-03-27T05:00:00.658Z,1.15
2023-03-27T05:02:42.958Z,1.73
2023-03-27T05:05:16.933Z,2.30
2023-03-27T05:07:47.828Z,1.35
2023-03-27T05:10:21.690Z,1.83
2023-03-27T05:12:50.388Z,1.42
2023-03-27T05:15:18.325Z,1.65
2023-03-27T05:17:46.972Z,1.77
2023-03-27T05:20:15.301Z,1.38
2023-03-27T05:22:43.152Z,1.65
2023-03-27T05:25:21.666Z,2.33
2023-03-27T05:27:48.774Z,1.88
2023-03-27T05:30:17.065Z,1.58
2023-03-27T05:32:44.945Z,1.63
2023-03-27T05:35:17.991Z,2.35
2023-03-27T05:37:48.737Z,1.20
2023-03-27T05:40:25.574Z,2.15
2023-03-27T05:42:52.898Z,1.65
2023-03-27T05:45:20.225Z,1.63
2023-03-27T05:47:50.667Z,2.25
2023-03-27T05:50:18.037Z,1.83
2023-03-27T05:52:44.794Z,2.78
2023-03-27T05:55:11.632Z,1.90
2023-03-27T05:57:39.717Z,1.42
2023-03-27T06:00:16.408Z,1.40
2023-03-27T06:02:43.768Z,1.70
2023-03-27T06:05:16.064Z,2.05
2023-03-27T06:07:47.635Z,2.22
2023-03-27T06:10:17.132Z,1.10
2023-03-27T06:13:15.794Z,3.10
2023-03-27T06:15:53.288Z,0.98
2023-03-27T06:18:49.214Z,2.58
2023-03-27T06:21:17.848Z,1.90
2023-03-27T06:23:44.460Z,1.33
2023-03-27T06:26:13.697Z,2.13
2023-03-27T06:28:40.168Z,1.15
2023-03-27T06:31:06.945Z,1.98
2023-03-27T06:33:40.433Z,1.73
2023-03-27T06:36:16.194Z,1.80
2023-03-27T06:38:45.631Z,2.75
2023-03-27T06:41:12.070Z,1.95
2023-03-27T06:43:57.215Z,1.40
2023-03-27T06:46:45.914Z,2.10
2023-03-27T06:49:18.329Z,1.92
2023-03-27T06:51:45.138Z,1.70
2023-03-27T06:54:14.486Z,1.33
2023-03-27T06:56:45.785Z,1.65
2023-03-27T07:01:46.496Z,1.75
2023-03-27T07:04:29.003Z,1.45
2023-03-27T07:07:21.328Z,1.38
2023-03-27T07:09:49.901Z,2.15
2023-03-27T07:12:21.398Z,1.38
2023-03-27T07:14:48.420Z,1.30
2023-03-27T07:17:14.952Z,1.45
2023-03-27T07:19:49.131Z,2.10
2023-03-27T07:22:17.529Z,1.35
2023-03-27T07:24:44.519Z,2.28
2023-03-27T07:27:11.218Z,1.70
2023-03-27T07:29:38.127Z,1.55
2023-03-27T07:32:08.032Z,2.22
2023-03-27T07:34:42.280Z,2.10
2023-03-27T07:37:29.069Z,1.65
2023-03-27T07:40:29.534Z,2.08
2023-03-27T07:43:23.822Z,2.85
2023-03-27T07:45:50.628Z,1.98
2023-03-27T07:48:17.388Z,1.67
2023-03-27T07:50:45.119Z,2.88
2023-03-27T07:53:32.439Z,2.03
2023-03-27T07:56:10.419Z,1.42
2023-03-27T07:58:37.641Z,1.30
2023-03-27T08:01:04.643Z,1.67
2023-03-27T08:03:31.947Z,1.13
2023-03-27T08:05:59.948Z,2.10
2023-03-27T08:08:29.286Z,2.03
2023-03-27T08:10:57.595Z,1.00
2023-03-27T08:13:26.962Z,1.27
2023-03-27T08:16:01.525Z,2.95
2023-03-27T08:18:28.052Z,1.38
2023-03-27T08:20:55.758Z,1.60
2023-03-27T08:23:27.016Z,1.70
2023-03-27T08:26:16.324Z,1.45
2023-03-27T08:28:48.675Z,1.23
2023-03-27T08:31:15.966Z,1.33
2023-03-27T08:33:44.038Z,1.27
2023-03-27T08:38:43.173Z,1.45
2023-03-27T08:41:30.743Z,2.15
2023-03-27T08:44:19.806Z,1.23
2023-03-27T08:46:53.248Z,1.67
2023-03-27T08:49:21.129Z,1.98
2023-03-27T08:52:24.947Z,1.55
2023-03-27T08:54:58.361Z,1.50
2023-03-27T08:57:34.438Z,1.70
2023-03-27T09:00:22.611Z,1.48
2023-03-27T09:02:56.258Z,1.33
2023-03-27T09:05:29.898Z,1.55
2023-03-27T09:08:05.128Z,1.48
2023-03-27T09:10:40.880Z,1.17
2023-03-27T09:13:41.167Z,1.40
2023-03-27T09:16:12.571Z,1.52
2023-03-27T09:18:54.182Z,2.50
2023-03-27T09:21:29.875Z,1.88
2023-03-27T09:24:01.558Z,1.58
2023-03-27T09:26:52.736Z,1.33
2023-03-27T09:29:43.653Z,2.22
2023-03-27T09:32:33.522Z,2.72
2023-03-27T09:35:00.760Z,1.67
2023-03-27T09:37:27.865Z,2.58
2023-03-27T09:39:55.106Z,1.45
2023-03-27T09:42:30.392Z,1.90
2023-03-27T09:44:59.331Z,1.67
2023-03-27T09:47:49.217Z,1.08
2023-03-27T09:50:15.789Z,1.13
2023-03-27T09:53:06.171Z,0.85
2023-03-27T09:55:50.494Z,1.65
2023-03-27T09:58:25.826Z,1.33
2023-03-27T10:01:07.063Z,1.60
2023-03-27T10:03:39.073Z,1.98
2023-03-27T10:06:07.677Z,1.63
2023-03-27T10:08:47.360Z,1.20
2023-03-27T10:11:20.663Z,3.35
2023-03-27T10:13:50.868Z,2.10
2023-03-27T10:16:20.893Z,2.25
2023-03-27T10:18:59.147Z,1.27
2023-03-27T10:21:28.709Z,1.10
2023-03-27T10:23:59.609Z,0.93
2023-03-27T10:26:47.462Z,1.90
2023-03-27T10:29:29.166Z,1.05
2023-03-27T10:31:56.934Z,0.80
2023-03-27T10:34:57.963Z,1.13
2023-03-27T10:37:50.049Z,0.70
2023-03-27T10:40:21.537Z,1.15
2023-03-27T10:42:55.374Z,0.90
2023-03-27T10:45:21.937Z,0.63
2023-03-27T10:47:59.515Z,0.95
2023-03-27T10:50:44.050Z,0.90
2023-03-27T10:53:26.625Z,1.15
2023-03-27T10:56:10.650Z,1.58
2023-03-27T10:58:43.353Z,1.40
2023-03-27T11:01:15.033Z,1.00
2023-03-27T11:03:46.764Z,0.77
2023-03-27T11:06:15.228Z,0.77
2023-03-27T11:08:53.182Z,1.08
2023-03-27T11:11:27.266Z,0.93
2023-03-27T11:14:02.080Z,1.45
2023-03-27T11:16:33.454Z,0.88
2023-03-27T11:19:37.761Z,1.02
2023-03-27T11:22:30.185Z,1.05
2023-03-27T11:25:06.229Z,1.05
2023-03-27T11:27:38.096Z,0.88
2023-03-27T11:30:08.177Z,1.25
2023-03-27T11:32:52.833Z,1.42
2023-03-27T11:35:23.214Z,1.45
2023-03-27T11:38:06.250Z,1.80
2023-03-27T11:40:43.409Z,1.02
2023-03-27T11:43:14.078Z,1.00
2023-03-27T11:46:06.746Z,1.17
2023-03-27T11:48:54.484Z,0.85
2023-03-27T11:51:21.158Z,1.45
2023-03-27T11:54:11.511Z,1.00
2023-03-27T11:56:59.162Z,0.90
2023-03-27T11:59:51.218Z,0.93
2023-03-27T12:02:30.213Z,2.03
2023-03-27T12:05:00.557Z,0.63
2023-03-27T12:07:56.518Z,1.65
2023-03-27T12:10:29.095Z,0.93
2023-03-27T12:13:28.711Z,1.65
2023-03-27T12:16:01.494Z,0.70
2023-03-27T12:19:02.083Z,1.83
2023-03-27T12:21:43.744Z,0.90
2023-03-27T12:24:40.529Z,0.50
2023-03-27T12:27:27.576Z,1.45
2023-03-27T12:30:05.935Z,2.28
2023-03-27T12:32:47.083Z,0.93
2023-03-27T12:35:16.372Z,1.00
2023-03-27T12:37:50.780Z,2.10
2023-03-27T12:40:27.171Z,0.82
2023-03-27T12:43:14.544Z,0.80
2023-03-27T12:45:51.098Z,0.77
2023-03-27T12:48:20.793Z,1.38
2023-03-27T12:50:51.601Z,1.08
2023-03-27T12:53:19.730Z,0.90
2023-03-27T12:55:46.450Z,1.13
2023-03-27T12:58:32.362Z,1.08
2023-03-27T13:01:52.174Z,1.13
2023-03-27T13:04:37.796Z,0.93
2023-03-27T13:07:20.513Z,0.77
2023-03-27T13:10:21.896Z,0.70
2023-03-27T13:13:18.361Z,0.80
2023-03-27T13:15:44.745Z,0.60
2023-03-27T13:18:38.875Z,0.65
2023-03-27T13:21:24.865Z,1.10
2023-03-27T13:23:56.807Z,0.90
2023-03-27T13:26:36.513Z,1.38
2023-03-27T13:29:11.612Z,1.42
2023-03-27T13:31:49.630Z,0.57
2023-03-27T13:34:35.375Z,1.42
2023-03-27T13:37:36.380Z,0.88
2023-03-27T13:40:20.341Z,0.55
2023-03-27T13:42:59.082Z,1.20
2023-03-27T13:45:35.822Z,0.82
2023-03-27T13:48:39.486Z,0.50
2023-03-27T13:51:27.835Z,0.77
2023-03-27T13:54:06.041Z,0.70
2023-03-27T13:56:43.633Z,0.60
2023-03-27T13:59:34.464Z,0.70
2023-03-27T14:02:18.909Z,0.90
2023-03-27T14:04:48.961Z,0.60
2023-03-27T14:07:34.547Z,1.02
2023-03-27T14:12:42.797Z,0.47
2023-03-27T14:15:32.914Z,0.63
2023-03-27T14:18:27.343Z,0.57
2023-03-27T14:21:00.579Z,1.27
2023-03-27T14:23:54.833Z,1.05
2023-03-27T14:26:42.319Z,0.90
2023-03-27T14:29:15.376Z,0.60
2023-03-27T14:31:46.016Z,1.42
2023-03-27T14:37:35.906Z,0.55
2023-03-27T14:40:20.927Z,1.10
2023-03-27T14:42:50.097Z,0.85
2023-03-27T14:45:20.636Z,0.93
2023-03-27T14:47:52.884Z,0.98
2023-03-27T14:50:20.509Z,0.80
2023-03-27T14:52:52.824Z,0.88
2023-03-27T14:55:19.423Z,0.50
2023-03-27T14:57:55.081Z,1.33
2023-03-27T15:00:27.518Z,0.93
2023-03-27T15:02:57.131Z,0.85
2023-03-27T15:05:23.933Z,0.85
2023-03-27T15:07:57.269Z,1.20
2023-03-27T15:10:49.646Z,0.80
2023-03-27T15:13:26.083Z,0.85
2023-03-27T15:15:59.031Z,1.10
2023-03-27T15:18:32.956Z,2.22
2023-03-27T15:21:04.630Z,1.00
2023-03-27T15:23:36.782Z,0.90
2023-03-27T15:26:06.262Z,1.35
2023-03-27T15:28:36.691Z,0.95
2023-03-27T15:31:03.631Z,1.50
2023-03-27T15:33:34.504Z,1.00
2023-03-27T15:36:05.408Z,1.10
2023-03-27T15:38:33.418Z,0.82
2023-03-27T15:41:01.723Z,1.15
2023-03-27T15:43:28.659Z,0.95
2023-03-27T15:46:26.838Z,1.50
2023-03-27T15:48:56.339Z,1.30
2023-03-27T15:51:22.734Z,0.90
2023-03-27T15:53:50.856Z,1.10
2023-03-27T15:56:29.156Z,1.75
2023-03-27T15:59:03.948Z,1.73
2023-03-27T16:01:42.064Z,1.85
2023-03-27T16:04:11.455Z,1.13
2023-03-27T16:06:40.811Z,1.48
2023-03-27T16:09:28.284Z,1.65
2023-03-27T16:11:56.175Z,1.42
2023-03-27T16:14:41.870Z,1.70
2023-03-27T16:17:08.713Z,1.25
2023-03-27T16:19:43.129Z,1.10
2023-03-27T16:22:09.615Z,1.17
2023-03-27T16:24:36.194Z,1.25
2023-03-27T16:27:02.552Z,1.67
2023-03-27T16:29:29.078Z,1.27
2023-03-27T16:31:55.820Z,1.20
2023-03-27T16:34:23.614Z,1.20
2023-03-27T16:36:50.299Z,1.08
2023-03-27T16:39:17.106Z,0.95
2023-03-27T16:41:43.535Z,1.20
2023-03-27T16:44:09.916Z,1.50
2023-03-27T16:46:36.469Z,0.93
2023-03-27T16:49:03.803Z,2.10
2023-03-27T16:51:31.014Z,2.45
2023-03-27T16:53:57.448Z,1.85
2023-03-27T16:56:23.970Z,2.50
2023-03-27T16:58:50.503Z,1.30
2023-03-27T17:01:16.998Z,1.30
2023-03-27T17:03:43.552Z,1.58
2023-03-27T17:06:11.321Z,2.15
2023-03-27T17:08:38.107Z,1.70
2023-03-27T17:11:06.165Z,1.50
2023-03-27T17:13:32.585Z,1.23
2023-03-27T17:15:59.362Z,2.10
2023-03-27T17:18:26.475Z,1.67
2023-03-27T17:20:52.951Z,1.48
2023-03-27T17:23:19.345Z,1.38
2023-03-27T17:25:46.348Z,1.25
2023-03-27T17:28:12.712Z,2.50
2023-03-27T17:30:49.583Z,1.55
2023-03-27T17:33:23.842Z,2.47
2023-03-27T17:35:50.436Z,1.52
2023-03-27T17:38:22.451Z,1.38
2023-03-27T17:40:49.435Z,1.73
2023-03-27T17:43:16.225Z,1.95
2023-03-27T17:45:43.182Z,1.63
2023-03-27T17:48:11.300Z,1.60
2023-03-27T17:50:38.242Z,1.70
2023-03-27T17:53:04.861Z,1.10
2023-03-27T17:55:31.400Z,0.90
2023-03-27T17:58:08.320Z,2.00
2023-03-27T18:00:36.470Z,1.83
2023-03-27T18:03:03.478Z,1.17
2023-03-27T18:05:29.915Z,2.03
2023-03-27T18:07:56.550Z,1.65
2023-03-27T18:10:23.011Z,1.88
2023-03-27T18:12:49.858Z,1.02
2023-03-27T18:15:16.219Z,1.10
2023-03-27T18:17:42.612Z,2.40
2023-03-27T18:20:10.167Z,2.92
2023-03-27T18:22:37.276Z,2.90
2023-03-27T18:25:06.523Z,1.85
2023-03-27T18:27:32.907Z,1.80
2023-03-27T18:29:59.691Z,1.38
2023-03-27T18:32:26.174Z,2.47
2023-03-27T18:34:52.716Z,3.05
2023-03-27T18:37:19.050Z,3.53
2023-03-27T18:39:46.599Z,2.15
2023-03-27T18:42:13.540Z,2.13
2023-03-27T18:44:41.418Z,2.17
2023-03-27T18:47:07.901Z,2.00
2023-03-27T18:49:34.363Z,1.77
2023-03-27T18:52:00.977Z,2.28
2023-03-27T18:54:28.121Z,1.55
2023-03-27T18:56:54.620Z,1.40
2023-03-27T18:59:22.594Z,1.80
2023-03-27T19:01:49.255Z,1.98
2023-03-27T19:04:17.248Z,1.90
2023-03-27T19:06:43.962Z,2.22
2023-03-27T19:09:10.334Z,2.42
2023-03-27T19:11:36.978Z,3.05
2023-03-27T19:14:05.957Z,3.92
2023-03-27T19:16:36.310Z,2.75
2023-03-27T19:19:22.238Z,3.53
2023-03-27T19:21:51.191Z,3.15
2023-03-27T19:24:23.788Z,2.92
2023-03-27T19:26:50.756Z,3.42
2023-03-27T19:29:17.137Z,2.28
2023-03-27T19:31:43.519Z,2.58
2023-03-27T19:34:09.936Z,2.40
2023-03-27T19:36:36.534Z,2.00
2023-03-27T19:39:04.364Z,1.42
2023-03-27T19:41:30.871Z,2.35
2023-03-27T19:43:59.620Z,1.60
2023-03-27T19:46:27.624Z,3.55
2023-03-27T19:48:54.298Z,3.97
2023-03-27T19:51:29.272Z,2.70
2023-03-27T19:53:55.683Z,2.85
2023-03-27T19:56:24.518Z,3.83
2023-03-27T19:58:52.139Z,2.45
2023-03-27T20:01:20.087Z,2.00
2023-03-27T20:03:46.726Z,2.40
2023-03-27T20:06:18.813Z,2.50
2023-03-27T20:08:45.394Z,3.35
2023-03-27T20:11:14.362Z,3.88
2023-03-27T20:13:53.037Z,2.47
2023-03-27T20:16:23.448Z,2.65
2023-03-27T20:18:55.230Z,2.50
2023-03-27T20:21:24.534Z,2.58
2023-03-27T20:23:53.823Z,2.80
2023-03-27T20:26:26.434Z,2.30
2023-03-27T20:29:00.901Z,2.22
2023-03-27T20:31:27.554Z,2.95
2023-03-27T20:33:55.222Z,2.47
2023-03-27T20:36:23.234Z,2.40
2023-03-27T20:38:52.924Z,2.57
2023-03-27T20:41:19.617Z,2.47
2023-03-27T20:43:47.270Z,2.22
2023-03-27T20:46:16.856Z,2.53
2023-03-27T20:48:54.748Z,1.98
2023-03-27T20:51:24.074Z,2.25
2023-03-27T20:53:58.072Z,2.08
2023-03-27T20:56:24.628Z,2.42
2023-03-27T20:58:51.597Z,2.58
2023-03-27T21:01:27.037Z,2.85
2023-03-27T21:03:53.700Z,1.70
2023-03-27T21:06:20.469Z,1.95
2023-03-27T21:08:47.161Z,2.20
2023-03-27T21:11:13.988Z,2.10
2023-03-27T21:13:40.556Z,2.25
2023-03-27T21:16:07.703Z,2.00
2023-03-27T21:18:34.169Z,1.92
2023-03-27T21:21:00.545Z,2.25
2023-03-27T21:23:26.940Z,2.72
2023-03-27T21:25:53.334Z,2.80
2023-03-27T21:28:19.753Z,2.38
2023-03-27T21:30:48.992Z,2.55
2023-03-27T21:33:16.102Z,2.60
2023-03-27T21:35:46.106Z,3.13
2023-03-27T21:38:13.054Z,2.22
2023-03-27T21:40:39.622Z,11.73
2023-03-27T21:43:06.798Z,2.33
2023-03-27T21:45:33.231Z,3.35
2023-03-27T21:47:59.633Z,5.78
2023-03-27T21:50:26.028Z,2.50
2023-03-27T21:52:52.421Z,3.35
2023-03-27T21:55:18.780Z,2.35
2023-03-27T21:57:45.522Z,1.95
2023-03-27T22:00:14.577Z,2.10
2023-03-27T22:02:41.747Z,3.15
2023-03-27T22:05:08.550Z,2.80
2023-03-27T22:07:35.276Z,3.28
2023-03-27T22:10:01.730Z,2.28
2023-03-27T22:12:28.156Z,3.45
2023-03-27T22:14:54.538Z,2.10
2023-03-27T22:17:21.647Z,2.10
2023-03-27T22:19:47.997Z,2.90
2023-03-27T22:22:14.479Z,2.17
2023-03-27T22:24:40.830Z,2.97
2023-03-27T22:27:07.345Z,2.05
2023-03-27T22:29:33.865Z,2.67
2023-03-27T22:32:00.320Z,1.88
2023-03-27T22:34:27.141Z,2.97
2023-03-27T22:36:53.564Z,2.60
2023-03-27T22:39:19.943Z,2.30
2023-03-27T22:41:46.301Z,2.03
2023-03-27T22:44:12.695Z,2.05
2023-03-27T22:46:39.115Z,2.90
2023-03-27T22:49:05.558Z,1.80
2023-03-27T22:51:31.933Z,1.90
2023-03-27T22:53:58.426Z,2.45
2023-03-27T22:56:24.915Z,2.50
2023-03-27T22:58:51.376Z,2.45
2023-03-27T23:01:17.891Z,2.85
2023-03-27T23:03:44.459Z,3.50
2023-03-27T23:06:20.771Z,3.80
2023-03-27T23:08:50.830Z,2.70
2023-03-27T23:11:17.730Z,2.25
2023-03-27T23:13:44.166Z,2.35
2023-03-27T23:16:10.835Z,2.00
2023-03-27T23:18:37.262Z,2.25
2023-03-27T23:21:05.297Z,2.25
2023-03-27T23:23:32.609Z,2.95
2023-03-27T23:25:59.961Z,2.63
2023-03-27T23:28:29.065Z,3.72
2023-03-27T23:30:56.599Z,4.00
2023-03-27T23:33:24.939Z,3.20
2023-03-27T23:35:52.794Z,3.05
2023-03-27T23:38:19.201Z,2.95
2023-03-27T23:40:45.873Z,4.00
2023-03-27T23:43:12.226Z,3.03
2023-03-27T23:45:38.649Z,2.20
2023-03-27T23:48:05.283Z,3.05
2023-03-27T23:50:31.634Z,2.95
2023-03-27T23:52:58.019Z,3.05
2023-03-27T23:55:24.428Z,3.33
2023-03-27T23:57:50.978Z,2.88
